Terminal Aerodrome Forecast
Issued by NWS Paducah, KY

Home | Current Version | Previous Version | Text Only | Print | Product List | Glossary Off
Versions: 1 2 3 4 5 6 7 8 9 10 11 12 13 14 15 16 17

000
FTUS43 KPAH 281100
TAFEVV
TAF
KEVV 281129Z 2812/2912 VRB02KT P6SM BKN150
     FM281500 18008KT P6SM SKC
     FM290000 17006KT P6SM FEW150 WS017/22050KT=

USA.gov is the U.S. government's official web portal to all federal, state and local government web resources and services.